Time;durP1;ratioP1;P1;durP2;ratioP2;P2;SDS_P1;SDS_P2;PMS_P1;PMS_P2;Temp;Humidity;BMP_temperature;BMP_pressure;BME280_temperature;BME280_humidity;BME280_pressure;Samples;Min_cycle;Max_cycle;Signal;HPM_P1;HPM_P2
2022/07/27 00:00:05;;;;;;;5.00;1.33;;;16.00;87.60;;;;;;5052137;28;20128;-42
2022/07/27 00:02:32;;;;;;;6.50;1.27;;;15.90;87.90;;;;;;5059655;28;20059;-43
2022/07/27 00:05:00;;;;;;;3.47;1.40;;;15.90;88.10;;;;;;5064796;28;20059;-43
2022/07/27 00:07:26;;;;;;;5.65;1.38;;;15.90;88.10;;;;;;5031813;28;20056;-42
2022/07/27 00:09:53;;;;;;;6.45;1.40;;;15.80;88.20;;;;;;5031304;28;20103;-43
2022/07/27 00:12:20;;;;;;;3.60;1.30;;;15.80;88.30;;;;;;5038536;28;20175;-43
2022/07/27 00:14:46;;;;;;;5.55;1.50;;;15.80;88.60;;;;;;5063263;28;20128;-41
2022/07/27 00:17:13;;;;;;;4.53;1.27;;;15.80;88.60;;;;;;5055881;28;20040;-42
2022/07/27 00:19:40;;;;;;;4.95;1.35;;;15.70;88.70;;;;;;5066286;28;20044;-42
2022/07/27 00:22:08;;;;;;;4.88;1.50;;;15.70;89.20;;;;;;5065427;28;20118;-42
2022/07/27 00:24:35;;;;;;;5.72;1.27;;;15.70;89.40;;;;;;5061980;28;20731;-42
2022/07/27 00:27:02;;;;;;;5.88;1.40;;;15.70;89.40;;;;;;5050934;28;20047;-42
2022/07/27 00:29:28;;;;;;;3.58;1.40;;;15.60;89.70;;;;;;5045169;28;20094;-41
2022/07/27 00:31:55;;;;;;;6.93;1.52;;;15.60;90.00;;;;;;5068765;28;20501;-43
2022/07/27 00:34:22;;;;;;;4.65;1.10;;;15.60;90.00;;;;;;5075226;28;20068;-42
2022/07/27 00:36:49;;;;;;;4.63;1.13;;;15.60;90.00;;;;;;5067292;28;20454;-42
2022/07/27 00:39:17;;;;;;;4.45;1.42;;;15.60;90.00;;;;;;5059681;28;20473;-42
2022/07/27 00:41:45;;;;;;;5.40;1.40;;;15.60;90.00;;;;;;5055449;28;20044;-42
2022/07/27 00:44:11;;;;;;;4.32;1.27;;;15.60;90.10;;;;;;5056043;28;20079;-42
2022/07/27 00:46:38;;;;;;;4.00;1.20;;;15.60;90.20;;;;;;5058282;28;20128;-42
2022/07/27 00:49:05;;;;;;;3.65;1.15;;;15.60;90.10;;;;;;5056181;28;20116;-42
2022/07/27 00:51:32;;;;;;;3.70;1.20;;;15.60;90.40;;;;;;5061428;28;20135;-43
2022/07/27 00:53:59;;;;;;;5.05;1.23;;;15.60;90.30;;;;;;5069434;28;20071;-43
2022/07/27 00:56:27;;;;;;;3.50;1.10;;;15.60;90.50;;;;;;5059676;28;20051;-43
2022/07/27 00:58:53;;;;;;;3.08;1.20;;;15.60;90.60;;;;;;5062310;28;20123;-43
2022/07/27 01:01:20;;;;;;;4.72;1.40;;;15.60;90.50;;;;;;5053978;28;20051;-43
2022/07/27 01:03:47;;;;;;;5.35;1.42;;;15.60;90.70;;;;;;5070031;28;20119;-42
2022/07/27 01:06:14;;;;;;;8.35;1.63;;;15.60;90.60;;;;;;5074495;28;20391;-43
2022/07/27 01:08:41;;;;;;;2.08;1.00;;;15.70;90.80;;;;;;5069714;28;20117;-43
2022/07/27 01:11:08;;;;;;;6.75;1.60;;;15.60;90.80;;;;;;5061921;28;20451;-42
2022/07/27 01:13:36;;;;;;;4.70;1.60;;;15.60;91.10;;;;;;5069613;28;21550;-42
2022/07/27 01:16:04;;;;;;;5.70;1.50;;;15.60;91.20;;;;;;5048556;28;20401;-42
2022/07/27 01:18:32;;;;;;;5.65;1.35;;;15.60;91.30;;;;;;5065065;28;20529;-42
2022/07/27 01:21:00;;;;;;;4.68;1.60;;;15.50;91.20;;;;;;5069531;28;20041;-42
2022/07/27 01:23:31;;;;;;;6.35;1.23;;;15.60;91.50;;;;;;5053699;28;20080;-42
2022/07/27 01:25:58;;;;;;;4.93;1.42;;;15.60;91.40;;;;;;5060911;28;20076;-41
2022/07/27 01:28:24;;;;;;;8.00;1.25;;;15.50;91.40;;;;;;5067007;28;20049;-42
2022/07/27 01:30:51;;;;;;;2.70;1.05;;;15.50;91.40;;;;;;5062955;28;20044;-42
2022/07/27 01:33:24;;;;;;;7.95;1.77;;;15.60;91.40;;;;;;5059025;28;20144;-42
2022/07/27 01:35:51;;;;;;;4.13;1.40;;;15.60;91.60;;;;;;5060676;28;20073;-42
2022/07/27 01:38:18;;;;;;;6.60;1.60;;;15.60;91.50;;;;;;5072931;28;20136;-42
2022/07/27 01:40:46;;;;;;;5.55;1.55;;;15.60;91.60;;;;;;5068013;28;20055;-42
2022/07/27 01:43:13;;;;;;;7.95;1.77;;;15.60;91.50;;;;;;5064052;28;20080;-42
2022/07/27 01:45:40;;;;;;;3.88;1.10;;;15.50;91.40;;;;;;5050122;28;20124;-41
2022/07/27 01:48:07;;;;;;;5.35;1.55;;;15.50;91.30;;;;;;5034536;28;20080;-42
2022/07/27 01:50:33;;;;;;;5.90;1.50;;;15.50;91.50;;;;;;5048558;28;20135;-43
2022/07/27 01:53:00;;;;;;;5.05;1.48;;;15.50;91.60;;;;;;5052823;28;20132;-42
2022/07/27 01:55:27;;;;;;;7.40;1.40;;;15.50;91.50;;;;;;5072026;28;20125;-42
2022/07/27 01:57:55;;;;;;;6.32;1.60;;;15.40;91.50;;;;;;5074420;28;20106;-42
2022/07/27 02:00:22;;;;;;;4.15;1.42;;;15.40;91.60;;;;;;5062765;28;20137;-42
2022/07/27 02:02:48;;;;;;;3.97;1.38;;;15.40;91.80;;;;;;5070078;28;20131;-42
2022/07/27 02:05:15;;;;;;;2.90;1.20;;;15.30;91.70;;;;;;5044055;28;20512;-42
2022/07/27 02:07:42;;;;;;;7.55;1.55;;;15.30;91.70;;;;;;5044474;28;20132;-42
2022/07/27 02:10:09;;;;;;;5.65;1.25;;;15.20;91.90;;;;;;5069039;28;20148;-43
2022/07/27 02:12:35;;;;;;;4.07;1.42;;;15.20;91.80;;;;;;5064907;28;20440;-43
2022/07/27 02:15:04;;;;;;;3.63;1.20;;;15.20;92.00;;;;;;5070163;28;20101;-41
2022/07/27 02:17:31;;;;;;;5.32;2.45;;;15.20;92.00;;;;;;5063598;28;20457;-42
2022/07/27 02:19:58;;;;;;;3.45;1.42;;;15.10;92.10;;;;;;5063030;28;20136;-43
2022/07/27 02:22:24;;;;;;;6.30;1.60;;;15.10;92.10;;;;;;5058511;28;20127;-43
2022/07/27 02:24:51;;;;;;;4.10;1.40;;;15.10;91.90;;;;;;5060032;28;20044;-43
2022/07/27 02:27:18;;;;;;;3.72;1.40;;;15.00;92.20;;;;;;5050166;28;20131;-42
2022/07/27 02:29:45;;;;;;;4.18;1.05;;;14.90;92.30;;;;;;5068715;28;20079;-43
2022/07/27 02:32:13;;;;;;;5.93;1.67;;;14.90;92.20;;;;;;5070038;28;20076;-42
2022/07/27 02:34:39;;;;;;;2.05;1.50;;;14.90;92.30;;;;;;5063092;28;20048;-42
2022/07/27 02:37:06;;;;;;;4.57;1.50;;;14.80;92.20;;;;;;5066430;28;20132;-43
2022/07/27 02:39:33;;;;;;;5.25;1.40;;;14.80;92.50;;;;;;5071546;28;20053;-43
2022/07/27 02:42:00;;;;;;;2.78;1.27;;;14.80;92.60;;;;;;5061251;28;20052;-44
2022/07/27 02:44:26;;;;;;;5.85;1.88;;;14.70;92.80;;;;;;5064159;28;20441;-41
2022/07/27 02:46:53;;;;;;;3.80;1.33;;;14.70;92.60;;;;;;5061387;28;20052;-43
2022/07/27 02:49:21;;;;;;;3.38;1.17;;;14.70;92.60;;;;;;5061111;28;20544;-42
2022/07/27 02:51:50;;;;;;;3.63;1.20;;;14.60;92.60;;;;;;5034428;28;20717;-43
2022/07/27 02:54:17;;;;;;;6.35;1.50;;;14.60;92.60;;;;;;5053784;28;20455;-43
2022/07/27 02:56:44;;;;;;;5.97;1.73;;;14.50;92.70;;;;;;5069423;28;20383;-42
2022/07/27 02:59:11;;;;;;;3.97;1.30;;;14.50;92.80;;;;;;5067516;28;20045;-43
2022/07/27 03:01:37;;;;;;;5.10;1.58;;;14.50;92.80;;;;;;5066453;28;20041;-42
2022/07/27 03:04:04;;;;;;;3.22;1.38;;;14.40;92.90;;;;;;5051772;28;20485;-43
2022/07/27 03:06:32;;;;;;;4.95;1.40;;;14.40;93.00;;;;;;5067339;28;20127;-42
2022/07/27 03:08:59;;;;;;;6.32;1.75;;;14.40;93.00;;;;;;5063169;28;20153;-44
2022/07/27 03:11:26;;;;;;;8.82;1.40;;;14.40;93.10;;;;;;5059016;28;20045;-43
2022/07/27 03:13:53;;;;;;;4.47;1.40;;;14.30;93.00;;;;;;5057248;28;20044;-42
2022/07/27 03:16:20;;;;;;;4.68;1.63;;;14.30;93.10;;;;;;5071567;28;20053;-43
2022/07/27 03:18:47;;;;;;;3.03;1.30;;;14.30;93.00;;;;;;5069752;28;20064;-42
2022/07/27 03:21:13;;;;;;;3.05;1.25;;;14.20;93.10;;;;;;5061337;28;20124;-43
2022/07/27 03:23:41;;;;;;;8.23;1.75;;;14.20;93.00;;;;;;5043601;28;20122;-43
2022/07/27 03:26:08;;;;;;;3.92;1.63;;;14.20;93.00;;;;;;5044305;28;20073;-42
2022/07/27 03:28:35;;;;;;;5.85;1.73;;;14.10;93.20;;;;;;5043439;28;20124;-42
2022/07/27 03:31:02;;;;;;;6.35;1.45;;;14.10;93.30;;;;;;5060506;28;20122;-43
2022/07/27 03:33:29;;;;;;;5.05;1.30;;;14.10;93.50;;;;;;5059341;28;20045;-42
2022/07/27 03:35:56;;;;;;;4.20;1.60;;;14.10;93.30;;;;;;5050311;28;20077;-43
2022/07/27 03:38:23;;;;;;;7.57;1.70;;;14.00;93.40;;;;;;5045946;28;20164;-42
2022/07/27 03:40:51;;;;;;;3.53;1.13;;;14.00;93.60;;;;;;5057581;28;20045;-43
2022/07/27 03:43:17;;;;;;;4.45;1.70;;;14.00;93.60;;;;;;5059923;28;20041;-42
2022/07/27 03:45:44;;;;;;;5.60;1.77;;;14.00;93.70;;;;;;5065205;28;20075;-42
2022/07/27 03:48:11;;;;;;;4.72;1.83;;;14.00;93.90;;;;;;5052872;28;20512;-42
2022/07/27 03:50:38;;;;;;;4.20;1.52;;;14.00;94.10;;;;;;5063368;28;20088;-42
2022/07/27 03:53:05;;;;;;;4.30;1.40;;;14.00;94.40;;;;;;5065717;28;20067;-42
2022/07/27 03:55:31;;;;;;;3.97;1.48;;;14.00;94.20;;;;;;5072969;28;20087;-42
2022/07/27 03:58:00;;;;;;;5.35;2.03;;;14.00;94.10;;;;;;5063121;28;20077;-42
2022/07/27 04:00:27;;;;;;;5.68;1.85;;;14.00;94.20;;;;;;5057180;28;20126;-42
2022/07/27 04:02:53;;;;;;;4.18;1.80;;;14.00;94.40;;;;;;5054914;28;20543;-42
2022/07/27 04:05:20;;;;;;;6.32;1.85;;;14.00;94.40;;;;;;5069086;28;20052;-42
2022/07/27 04:07:47;;;;;;;4.28;1.35;;;14.00;94.30;;;;;;5064991;28;20103;-42
2022/07/27 04:10:14;;;;;;;6.85;1.60;;;14.10;94.20;;;;;;5052051;28;20042;-42
2022/07/27 04:12:41;;;;;;;5.82;1.90;;;14.10;94.30;;;;;;5050006;28;20127;-43
2022/07/27 04:15:09;;;;;;;6.63;1.70;;;14.00;94.30;;;;;;5072107;28;20123;-43
2022/07/27 04:17:36;;;;;;;3.75;1.60;;;14.10;94.30;;;;;;5070715;28;20483;-43
2022/07/27 04:20:04;;;;;;;7.85;2.58;;;14.00;94.40;;;;;;5059989;28;20241;-43
2022/07/27 04:22:30;;;;;;;6.18;1.77;;;14.10;94.70;;;;;;5054041;28;20079;-43
2022/07/27 04:24:57;;;;;;;3.15;1.40;;;14.10;94.90;;;;;;5056749;28;20041;-43
2022/07/27 04:27:24;;;;;;;9.23;1.98;;;14.10;94.50;;;;;;5063852;28;20047;-43
2022/07/27 04:29:51;;;;;;;7.57;2.17;;;14.10;94.70;;;;;;5052369;28;20045;-43
2022/07/27 04:32:19;;;;;;;3.97;1.80;;;14.10;95.10;;;;;;5055304;28;20123;-43
2022/07/27 04:34:46;;;;;;;7.07;2.10;;;14.20;95.30;;;;;;5064539;28;20044;-42
2022/07/27 04:37:12;;;;;;;6.40;2.30;;;14.20;95.50;;;;;;5060071;28;20048;-42
2022/07/27 04:39:39;;;;;;;4.95;2.22;;;14.20;95.20;;;;;;5073063;28;20048;-42
2022/07/27 04:42:07;;;;;;;6.85;2.20;;;14.20;95.20;;;;;;5073346;28;20063;-42
2022/07/27 04:44:33;;;;;;;7.65;2.30;;;14.20;95.30;;;;;;5061730;28;20062;-43
2022/07/27 04:47:00;;;;;;;5.70;1.90;;;14.20;95.40;;;;;;5054187;28;20068;-42
2022/07/27 04:49:28;;;;;;;7.25;2.08;;;14.20;95.40;;;;;;5057511;28;20063;-43
2022/07/27 04:51:55;;;;;;;4.40;2.28;;;14.30;95.40;;;;;;5055026;28;20124;-42
2022/07/27 04:54:22;;;;;;;6.28;2.50;;;14.30;95.50;;;;;;5061752;28;20132;-42
2022/07/27 04:56:48;;;;;;;5.80;1.95;;;14.30;95.40;;;;;;5067028;28;20044;-41
2022/07/27 04:59:15;;;;;;;4.10;2.10;;;14.30;95.30;;;;;;5073730;28;20131;-42
2022/07/27 05:01:42;;;;;;;7.93;2.60;;;14.40;95.40;;;;;;5059953;28;20053;-44
2022/07/27 05:04:09;;;;;;;7.18;2.55;;;14.40;95.50;;;;;;5067642;28;20056;-43
2022/07/27 05:06:37;;;;;;;6.20;2.40;;;14.40;95.60;;;;;;5074209;28;20053;-43
2022/07/27 05:09:04;;;;;;;4.82;1.70;;;14.40;95.40;;;;;;5069158;28;20132;-43
2022/07/27 05:11:30;;;;;;;5.80;2.10;;;14.50;95.50;;;;;;5068900;28;20076;-43
2022/07/27 05:13:57;;;;;;;4.97;1.90;;;14.50;95.40;;;;;;5072817;28;20480;-43
2022/07/27 05:16:24;;;;;;;6.25;2.30;;;14.60;95.30;;;;;;5066838;28;20110;-43
2022/07/27 05:18:50;;;;;;;6.80;2.22;;;14.60;95.50;;;;;;5049856;28;20165;-43
2022/07/27 05:21:17;;;;;;;9.77;2.20;;;14.60;95.50;;;;;;5063097;28;20124;-43
2022/07/27 05:23:45;;;;;;;6.25;2.05;;;14.60;95.90;;;;;;5057794;28;20128;-43
2022/07/27 05:26:12;;;;;;;9.60;2.53;;;14.70;95.60;;;;;;5064736;28;20068;-42
2022/07/27 05:28:39;;;;;;;7.03;2.63;;;14.60;95.70;;;;;;5053034;28;20120;-42
2022/07/27 05:31:06;;;;;;;7.18;2.33;;;14.60;95.70;;;;;;5051001;28;20124;-42
2022/07/27 05:33:33;;;;;;;8.65;2.17;;;14.70;95.80;;;;;;5053272;28;20098;-42
2022/07/27 05:35:59;;;;;;;6.20;2.13;;;14.70;95.90;;;;;;5061002;28;20400;-43
2022/07/27 05:38:26;;;;;;;7.18;2.13;;;14.70;95.90;;;;;;5072930;28;20131;-43
2022/07/27 05:40:54;;;;;;;7.15;2.35;;;14.70;96.00;;;;;;5069374;28;21536;-43
2022/07/27 05:43:21;;;;;;;6.82;1.90;;;14.70;96.10;;;;;;5068274;28;20045;-42
2022/07/27 05:45:49;;;;;;;10.63;2.50;;;14.80;96.40;;;;;;5074652;28;20462;-42
2022/07/27 05:48:15;;;;;;;10.25;1.98;;;14.80;96.10;;;;;;5069722;28;20048;-42
2022/07/27 05:50:42;;;;;;;7.85;1.73;;;14.90;96.00;;;;;;5052603;28;20136;-42
2022/07/27 05:53:09;;;;;;;7.32;1.88;;;14.90;96.20;;;;;;5053415;28;20121;-42
2022/07/27 05:55:36;;;;;;;5.78;1.70;;;15.00;96.20;;;;;;5074492;28;20090;-42
2022/07/27 05:58:05;;;;;;;8.65;1.92;;;15.00;96.20;;;;;;5071069;28;20498;-42
2022/07/27 06:00:31;;;;;;;5.43;1.55;;;15.10;96.20;;;;;;5052598;28;20536;-42
2022/07/27 06:02:58;;;;;;;9.77;1.98;;;15.10;96.10;;;;;;5071055;28;20045;-43
2022/07/27 06:05:25;;;;;;;8.27;1.90;;;15.10;96.00;;;;;;5036418;28;20045;-42
2022/07/27 06:08:02;;;;;;;7.63;1.77;;;15.20;96.10;;;;;;5054172;28;20059;-42
2022/07/27 06:10:29;;;;;;;10.40;2.05;;;15.30;96.10;;;;;;5056875;28;20103;-42
2022/07/27 06:12:56;;;;;;;8.10;1.70;;;15.30;95.90;;;;;;5063228;28;20556;-42
2022/07/27 06:15:24;;;;;;;9.30;2.38;;;15.40;96.10;;;;;;5069427;28;20099;-42
2022/07/27 06:17:52;;;;;;;7.45;1.70;;;15.40;96.20;;;;;;5073929;28;20088;-42
2022/07/27 06:20:19;;;;;;;7.97;2.03;;;15.50;96.10;;;;;;5067383;28;20052;-43
2022/07/27 06:22:46;;;;;;;6.07;2.08;;;15.50;96.20;;;;;;5068985;28;20074;-42
2022/07/27 06:25:13;;;;;;;7.78;2.08;;;15.50;96.10;;;;;;5072876;28;20041;-42
2022/07/27 06:27:40;;;;;;;7.40;2.10;;;15.60;96.10;;;;;;5056239;28;20044;-43
2022/07/27 06:30:08;;;;;;;4.35;1.63;;;15.60;95.90;;;;;;5051775;28;20429;-42
2022/07/27 06:32:36;;;;;;;5.55;1.58;;;15.60;95.90;;;;;;5051721;28;20049;-42
2022/07/27 06:35:04;;;;;;;5.88;1.95;;;15.70;96.10;;;;;;5052167;28;20094;-43
2022/07/27 06:37:31;;;;;;;7.90;1.88;;;15.70;96.20;;;;;;5065419;28;20079;-41
2022/07/27 06:39:57;;;;;;;9.93;2.33;;;15.80;96.00;;;;;;5070468;28;20094;-42
2022/07/27 06:42:24;;;;;;;9.07;1.83;;;15.80;96.00;;;;;;5053674;28;20136;-43
2022/07/27 06:44:51;;;;;;;7.05;2.17;;;15.90;96.30;;;;;;5072331;28;20106;-42
2022/07/27 06:47:18;;;;;;;6.20;1.70;;;15.90;96.30;;;;;;5068161;28;20137;-43
2022/07/27 06:49:46;;;;;;;8.70;2.13;;;16.00;96.10;;;;;;5072554;28;20083;-43
2022/07/27 06:52:12;;;;;;;5.75;1.50;;;16.00;96.10;;;;;;5066173;28;20120;-42
2022/07/27 06:54:39;;;;;;;7.25;2.03;;;16.10;96.10;;;;;;5067673;28;20123;-43
2022/07/27 06:57:06;;;;;;;8.90;2.03;;;16.20;96.00;;;;;;5073270;28;20080;-42
2022/07/27 06:59:33;;;;;;;9.75;2.08;;;16.30;95.70;;;;;;5059331;28;20128;-43
2022/07/27 07:02:00;;;;;;;7.05;1.48;;;16.30;95.60;;;;;;5050789;28;20048;-43
2022/07/27 07:04:27;;;;;;;7.82;1.45;;;16.40;95.40;;;;;;5062523;28;20131;-42
2022/07/27 07:06:59;;;;;;;9.48;2.33;;;16.50;95.20;;;;;;5063808;28;20361;-42
2022/07/27 07:09:26;;;;;;;8.95;1.90;;;16.60;95.00;;;;;;5055445;28;20059;-44
2022/07/27 07:11:53;;;;;;;6.90;1.25;;;16.70;94.90;;;;;;5061924;28;20090;-43
2022/07/27 07:14:20;;;;;;;6.40;1.38;;;16.80;94.80;;;;;;5070366;28;20091;-42
2022/07/27 07:16:47;;;;;;;9.27;1.98;;;16.90;94.60;;;;;;5052229;28;20437;-43
2022/07/27 07:19:14;;;;;;;6.32;1.63;;;16.90;94.50;;;;;;5050971;28;20045;-41
2022/07/27 07:21:41;;;;;;;7.53;2.00;;;17.00;94.40;;;;;;5058309;28;20052;-43
2022/07/27 07:24:09;;;;;;;8.55;1.77;;;17.10;94.40;;;;;;5070091;28;20045;-42
2022/07/27 07:26:36;;;;;;;9.40;1.73;;;17.20;94.40;;;;;;5072804;28;20071;-42
2022/07/27 07:29:03;;;;;;;6.88;1.83;;;17.30;94.20;;;;;;5069831;28;20048;-43
2022/07/27 07:31:30;;;;;;;7.93;1.60;;;17.40;93.90;;;;;;5064259;28;20045;-43
2022/07/27 07:33:57;;;;;;;5.47;1.27;;;17.50;93.60;;;;;;5059910;28;20140;-43
2022/07/27 07:36:24;;;;;;;8.10;1.45;;;17.70;93.40;;;;;;5052009;28;20056;-42
2022/07/27 07:38:51;;;;;;;7.13;1.48;;;17.70;93.20;;;;;;5057166;28;20149;-43
2022/07/27 07:41:19;;;;;;;7.35;1.52;;;17.80;93.10;;;;;;5050915;28;20080;-42
2022/07/27 07:43:46;;;;;;;3.90;1.00;;;17.90;92.60;;;;;;5062663;28;20131;-43
2022/07/27 07:46:12;;;;;;;7.45;1.42;;;18.00;92.50;;;;;;5072280;28;20491;-43
2022/07/27 07:48:42;;;;;;;6.70;1.50;;;18.10;92.40;;;;;;5066294;28;20047;-43
2022/07/27 07:51:08;;;;;;;9.88;1.30;;;18.20;92.20;;;;;;5071168;28;20110;-42
2022/07/27 07:53:35;;;;;;;4.40;1.48;;;18.30;91.70;;;;;;5053151;28;20132;-43
2022/07/27 07:56:02;;;;;;;7.03;1.50;;;18.20;91.60;;;;;;5069751;28;20090;-44
2022/07/27 07:58:32;;;;;;;7.88;1.35;;;18.20;91.30;;;;;;5071189;28;20045;-42
2022/07/27 08:00:59;;;;;;;4.95;1.48;;;18.30;91.60;;;;;;5059611;28;20080;-42
2022/07/27 08:03:25;;;;;;;5.53;1.52;;;18.40;91.30;;;;;;5056894;28;20494;-42
2022/07/27 08:05:52;;;;;;;7.88;1.48;;;18.50;90.90;;;;;;5072613;28;20127;-42
2022/07/27 08:08:19;;;;;;;7.28;1.42;;;18.60;90.70;;;;;;5072110;28;20461;-43
2022/07/27 08:10:46;;;;;;;7.45;1.75;;;18.80;90.30;;;;;;5062988;28;20084;-42
2022/07/27 08:13:12;;;;;;;7.32;1.40;;;19.00;90.10;;;;;;5056276;28;20119;-42
2022/07/27 08:15:40;;;;;;;5.90;1.33;;;19.20;90.00;;;;;;5050799;28;20048;-43
2022/07/27 08:18:08;;;;;;;8.75;1.23;;;19.50;89.40;;;;;;5067146;28;20059;-43
2022/07/27 08:20:35;;;;;;;6.35;1.23;;;19.60;88.30;;;;;;5059888;28;20118;-42
2022/07/27 08:23:02;;;;;;;6.18;1.13;;;19.80;87.90;;;;;;5050507;28;20088;-42
2022/07/27 08:25:28;;;;;;;7.50;1.10;;;20.00;87.40;;;;;;5051932;28;20083;-43
2022/07/27 08:27:55;;;;;;;5.80;1.33;;;20.10;86.80;;;;;;5052148;28;20490;-42
2022/07/27 08:30:22;;;;;;;8.93;1.17;;;20.10;86.50;;;;;;5050911;28;20080;-43
2022/07/27 08:32:51;;;;;;;8.13;1.20;;;20.30;85.60;;;;;;5070472;28;20135;-42
2022/07/27 08:35:18;;;;;;;7.38;1.73;;;20.40;85.10;;;;;;5072565;28;20127;-43
2022/07/27 08:37:45;;;;;;;8.73;1.38;;;20.50;85.00;;;;;;5075760;28;20098;-43
2022/07/27 08:40:12;;;;;;;6.47;1.48;;;20.80;84.40;;;;;;5075769;28;20433;-44
2022/07/27 08:42:40;;;;;;;10.77;1.63;;;21.00;84.00;;;;;;5065456;28;20040;-43
2022/07/27 08:45:08;;;;;;;6.03;1.40;;;21.20;82.90;;;;;;5074393;28;20136;-43
2022/07/27 08:47:35;;;;;;;6.03;1.20;;;21.30;81.70;;;;;;5074120;28;20099;-43
2022/07/27 08:50:04;;;;;;;4.22;1.45;;;21.40;80.50;;;;;;5074516;28;20075;-41
2022/07/27 08:52:30;;;;;;;7.85;1.40;;;21.50;80.00;;;;;;5059145;28;20091;-43
2022/07/27 08:54:57;;;;;;;4.70;1.17;;;21.50;79.30;;;;;;5074495;28;20079;-44
2022/07/27 08:57:24;;;;;;;5.90;1.52;;;21.50;79.50;;;;;;5068962;28;20120;-42
2022/07/27 08:59:53;;;;;;;3.65;1.13;;;21.40;79.20;;;;;;5058634;28;20045;-43
2022/07/27 09:02:22;;;;;;;7.10;1.67;;;21.40;79.30;;;;;;5055446;28;20050;-43
2022/07/27 09:04:48;;;;;;;7.78;1.20;;;21.30;79.60;;;;;;5053105;28;20052;-42
2022/07/27 09:07:28;;;;;;;3.88;1.08;;;21.10;80.50;;;;;;5054063;28;20084;-42
2022/07/27 09:09:55;;;;;;;6.53;1.20;;;21.00;81.20;;;;;;5056019;28;20511;-43
2022/07/27 09:12:25;;;;;;;4.97;1.45;;;20.80;82.20;;;;;;5053831;28;20045;-43
2022/07/27 09:14:52;;;;;;;7.15;1.38;;;20.70;82.80;;;;;;5053997;28;20476;-43
2022/07/27 09:17:20;;;;;;;6.93;1.30;;;20.70;82.90;;;;;;5064852;28;20052;-42
2022/07/27 09:19:54;;;;;;;8.23;1.60;;;20.60;82.70;;;;;;5069728;28;20497;-42
2022/07/27 09:22:39;;;;;;;8.70;1.33;;;20.60;82.90;;;;;;5073842;28;20052;-43
2022/07/27 09:25:06;;;;;;;6.18;1.35;;;20.50;83.10;;;;;;5067554;28;20037;-43
2022/07/27 09:27:33;;;;;;;4.38;1.15;;;20.50;82.80;;;;;;5056745;28;20072;-42
2022/07/27 09:30:01;;;;;;;7.28;1.13;;;20.50;82.80;;;;;;5072172;28;20091;-43
2022/07/27 09:32:28;;;;;;;8.25;1.35;;;20.60;82.70;;;;;;5058338;28;20056;-43
2022/07/27 09:34:55;;;;;;;4.75;1.30;;;20.60;82.70;;;;;;5053345;28;20048;-42
2022/07/27 09:37:24;;;;;;;5.45;1.23;;;20.80;82.80;;;;;;5054949;28;20080;-43
2022/07/27 09:40:07;;;;;;;9.90;2.20;;;20.90;82.90;;;;;;5073215;28;20135;-43
2022/07/27 09:42:34;;;;;;;9.10;1.52;;;21.20;82.00;;;;;;5074539;28;20131;-43
2022/07/27 09:45:01;;;;;;;8.07;1.42;;;21.40;81.00;;;;;;5072364;28;20387;-43
2022/07/27 09:47:28;;;;;;;5.90;1.30;;;21.50;79.80;;;;;;5061664;28;20127;-43
2022/07/27 09:49:56;;;;;;;4.07;1.20;;;21.60;79.30;;;;;;5073325;28;20403;-43
2022/07/27 09:52:23;;;;;;;3.50;1.17;;;21.60;79.20;;;;;;5068496;28;20052;-42
2022/07/27 09:54:50;;;;;;;7.25;1.08;;;21.60;79.20;;;;;;5073273;28;20090;-42
2022/07/27 09:57:18;;;;;;;4.00;1.33;;;21.70;79.00;;;;;;5074075;28;20440;-43
2022/07/27 09:59:45;;;;;;;3.53;0.80;;;21.80;78.90;;;;;;5074070;28;20492;-43
2022/07/27 10:02:13;;;;;;;5.55;1.20;;;21.90;78.70;;;;;;5069983;28;20055;-43
2022/07/27 10:04:40;;;;;;;4.20;0.82;;;22.00;78.20;;;;;;5071257;28;20053;-43
2022/07/27 10:07:06;;;;;;;3.35;1.00;;;21.90;77.10;;;;;;5059999;28;20392;-43
2022/07/27 10:09:33;;;;;;;4.25;1.42;;;21.90;76.90;;;;;;5052784;28;20135;-43
2022/07/27 10:12:00;;;;;;;5.53;1.20;;;21.90;76.70;;;;;;5066087;28;20046;-43
2022/07/27 10:14:28;;;;;;;5.05;0.95;;;22.00;76.60;;;;;;5070253;28;20123;-44
2022/07/27 10:16:55;;;;;;;6.45;1.38;;;21.90;75.50;;;;;;5065265;28;20387;-43
2022/07/27 10:19:23;;;;;;;5.30;1.20;;;21.80;75.20;;;;;;5066648;28;20120;-43
2022/07/27 10:21:50;;;;;;;6.03;1.17;;;21.70;75.50;;;;;;5052779;28;20088;-43
2022/07/27 10:24:25;;;;;;;4.40;1.10;;;21.80;76.20;;;;;;5064637;28;20492;-43
2022/07/27 10:26:51;;;;;;;9.13;1.27;;;21.90;75.60;;;;;;5060206;28;20192;-43
2022/07/27 10:29:19;;;;;;;4.35;1.30;;;22.10;75.50;;;;;;5060703;28;20171;-43
2022/07/27 10:31:59;;;;;;;3.80;0.90;;;22.20;75.60;;;;;;5063377;28;20079;-44
2022/07/27 10:34:33;;;;;;;4.00;1.00;;;22.30;75.20;;;;;;5053545;28;20040;-43
2022/07/27 10:37:08;;;;;;;3.25;0.90;;;22.40;74.20;;;;;;5063606;28;20041;-43
2022/07/27 10:39:36;;;;;;;5.03;1.00;;;22.40;73.50;;;;;;5068374;28;20048;-43
2022/07/27 10:42:23;;;;;;;4.00;0.93;;;22.40;74.30;;;;;;5071469;28;20090;-43
2022/07/27 10:44:57;;;;;;;3.17;1.00;;;22.40;75.30;;;;;;5073247;28;20427;-44
2022/07/27 10:47:36;;;;;;;2.88;1.08;;;22.60;74.50;;;;;;5073456;28;20080;-44
2022/07/27 10:50:31;;;;;;;4.00;1.08;;;22.70;74.30;;;;;;5068971;28;20047;-44
2022/07/27 10:53:06;;;;;;;9.07;1.48;;;22.80;73.50;;;;;;5014790;28;20590;-43
2022/07/27 10:55:54;;;;;;;4.47;1.10;;;22.90;73.20;;;;;;5070475;28;20049;-43
2022/07/27 10:58:57;;;;;;;8.57;1.20;;;23.10;71.80;;;;;;5064139;28;20048;-41
2022/07/27 11:01:24;;;;;;;4.75;1.10;;;23.20;71.80;;;;;;5058703;28;20057;-44
2022/07/27 11:04:00;;;;;;;4.25;1.35;;;23.40;70.90;;;;;;5055722;28;20135;-43
2022/07/27 11:06:28;;;;;;;2.65;1.00;;;23.70;69.40;;;;;;5071175;28;20059;-44
2022/07/27 11:08:55;;;;;;;4.57;0.88;;;23.70;68.90;;;;;;5071003;28;20048;-42
2022/07/27 11:11:23;;;;;;;11.73;1.13;;;23.80;67.50;;;;;;5069538;28;20052;-43
2022/07/27 11:13:50;;;;;;;5.57;1.30;;;23.60;66.50;;;;;;5051998;28;20135;-43
2022/07/27 11:16:18;;;;;;;4.90;0.95;;;23.50;67.30;;;;;;5051437;28;20040;-42
2022/07/27 11:18:54;;;;;;;5.45;1.40;;;23.40;68.10;;;;;;5058826;28;20044;-43
2022/07/27 11:21:22;;;;;;;4.00;0.90;;;23.30;68.30;;;;;;5066106;28;20040;-43
2022/07/27 11:23:50;;;;;;;5.03;1.10;;;23.30;68.90;;;;;;5054929;28;20049;-43
2022/07/27 11:26:16;;;;;;;6.97;1.27;;;23.30;68.60;;;;;;5062930;28;20468;-43
2022/07/27 11:28:43;;;;;;;9.07;1.55;;;23.30;69.30;;;;;;5053411;28;20480;-43
2022/07/27 11:31:12;;;;;;;4.70;1.15;;;23.30;69.60;;;;;;5062676;28;20131;-43
2022/07/27 11:33:49;;;;;;;6.40;1.10;;;23.30;68.40;;;;;;5052456;28;20051;-43
2022/07/27 11:36:17;;;;;;;8.77;1.00;;;23.30;68.30;;;;;;5071543;28;20131;-42
2022/07/27 11:38:47;;;;;;;10.50;1.42;;;23.10;68.40;;;;;;5061181;28;20072;-43
2022/07/27 11:41:25;;;;;;;4.53;0.88;;;23.20;68.00;;;;;;5057464;28;20097;-43
2022/07/27 11:43:51;;;;;;;5.22;1.20;;;23.30;68.70;;;;;;5071489;28;20131;-43
2022/07/27 11:46:21;;;;;;;6.35;1.15;;;23.40;68.80;;;;;;5071641;28;20132;-43
2022/07/27 11:48:53;;;;;;;3.92;1.00;;;23.60;68.40;;;;;;5063729;28;20094;-44
2022/07/27 11:51:21;;;;;;;5.45;1.00;;;23.80;68.20;;;;;;5072548;28;20083;-43
2022/07/27 11:53:48;;;;;;;4.38;0.93;;;24.10;67.50;;;;;;5068298;28;20040;-43
2022/07/27 11:56:21;;;;;;;5.97;0.90;;;24.40;66.40;;;;;;5065718;28;20041;-43
2022/07/27 11:58:59;;;;;;;3.38;1.20;;;24.50;63.50;;;;;;5062433;28;20451;-43
2022/07/27 12:01:27;;;;;;;3.25;0.80;;;24.30;63.50;;;;;;5066115;28;20388;-44
2022/07/27 12:04:03;;;;;;;3.53;0.90;;;24.20;63.70;;;;;;5063601;28;20076;-43
2022/07/27 12:06:33;;;;;;;4.65;1.10;;;24.00;65.00;;;;;;5064097;28;20476;-43
2022/07/27 12:09:00;;;;;;;5.68;1.00;;;23.80;62.60;;;;;;5053256;28;20044;-43
2022/07/27 12:11:30;;;;;;;4.35;0.85;;;23.70;63.20;;;;;;5062888;28;20080;-43
2022/07/27 12:14:00;;;;;;;3.25;0.82;;;23.60;63.10;;;;;;5076351;28;20052;-43
2022/07/27 12:16:26;;;;;;;2.55;0.65;;;23.60;63.40;;;;;;5076103;28;20062;-42
2022/07/27 12:18:53;;;;;;;6.00;0.95;;;23.60;63.50;;;;;;5055093;28;20124;-44
2022/07/27 12:21:20;;;;;;;4.18;0.70;;;23.70;63.40;;;;;;5060696;28;20050;-43
2022/07/27 12:23:52;;;;;;;2.63;0.70;;;23.70;62.90;;;;;;5067132;28;20044;-43
2022/07/27 12:26:19;;;;;;;3.55;0.80;;;23.80;62.70;;;;;;5063687;28;20047;-44
2022/07/27 12:28:46;;;;;;;4.22;0.85;;;23.80;63.10;;;;;;5072830;28;20524;-43
2022/07/27 12:31:17;;;;;;;3.40;0.90;;;23.90;61.90;;;;;;5057437;28;20047;-44
2022/07/27 12:33:43;;;;;;;5.30;1.02;;;24.10;62.30;;;;;;5052067;28;20392;-44
2022/07/27 12:36:10;;;;;;;3.60;0.70;;;24.30;61.40;;;;;;5052963;28;20045;-43
2022/07/27 12:38:38;;;;;;;3.33;0.85;;;24.40;60.00;;;;;;5055325;28;20127;-43
2022/07/27 12:41:06;;;;;;;2.83;0.73;;;24.40;61.80;;;;;;5054483;28;20464;-43
2022/07/27 12:43:33;;;;;;;3.63;0.73;;;24.50;61.50;;;;;;5056756;28;20548;-43
2022/07/27 12:46:09;;;;;;;5.90;1.02;;;24.40;59.80;;;;;;5055963;28;20093;-42
2022/07/27 12:48:38;;;;;;;3.47;0.55;;;24.30;59.90;;;;;;5055546;28;20044;-43